createdAt,value
2022-12-11T00:00:09.256Z,10.73
2022-12-11T00:03:32.727Z,10.20
2022-12-11T00:06:57.949Z,9.60
2022-12-11T00:10:21.467Z,9.90
2022-12-11T00:13:45.113Z,9.90
2022-12-11T00:17:08.734Z,12.00
2022-12-11T00:20:32.469Z,10.57
2022-12-11T00:23:57.602Z,10.73
2022-12-11T00:27:22.926Z,10.10
2022-12-11T00:30:46.517Z,12.23
2022-12-11T00:34:12.033Z,11.43
2022-12-11T00:37:35.525Z,10.63
2022-12-11T00:41:01.128Z,10.50
2022-12-11T00:44:24.560Z,10.30
2022-12-11T00:47:48.004Z,11.67
2022-12-11T00:51:12.202Z,12.87
2022-12-11T00:54:35.883Z,11.77
2022-12-11T00:58:00.862Z,12.50
2022-12-11T01:01:26.840Z,13.00
2022-12-11T01:04:50.391Z,11.80
2022-12-11T01:08:14.002Z,12.40
2022-12-11T01:11:37.972Z,11.50
2022-12-11T01:15:03.125Z,12.40
2022-12-11T01:18:27.282Z,12.53
2022-12-11T01:21:50.751Z,11.90
2022-12-11T01:25:14.609Z,12.40
2022-12-11T01:28:38.575Z,13.23
2022-12-11T01:32:03.440Z,13.70
2022-12-11T01:35:27.023Z,13.20
2022-12-11T01:38:50.986Z,12.83
2022-12-11T01:42:19.017Z,13.40
2022-12-11T01:45:46.271Z,13.70
2022-12-11T01:49:14.836Z,14.30
2022-12-11T01:52:38.788Z,14.13
2022-12-11T01:56:03.490Z,14.70
2022-12-11T01:59:31.854Z,11.60
2022-12-11T02:02:55.441Z,13.90
2022-12-11T02:06:41.908Z,13.70
2022-12-11T02:10:07.298Z,12.33
2022-12-11T02:13:44.942Z,14.23
2022-12-11T02:17:18.682Z,12.23
2022-12-11T02:20:52.806Z,13.53
2022-12-11T02:24:35.287Z,12.03
2022-12-11T02:28:19.914Z,14.00
2022-12-11T02:31:50.527Z,12.23
2022-12-11T02:35:21.498Z,8.77
2022-12-11T02:38:50.800Z,8.23
2022-12-11T02:42:17.311Z,8.83
2022-12-11T02:45:45.181Z,7.57
2022-12-11T02:49:13.432Z,6.37
2022-12-11T02:52:40.939Z,6.67
2022-12-11T02:56:12.603Z,5.87
2022-12-11T02:59:41.196Z,6.83
2022-12-11T03:03:06.298Z,9.10
2022-12-11T03:06:38.383Z,8.30
2022-12-11T03:10:02.221Z,9.80
2022-12-11T03:13:25.871Z,8.97
2022-12-11T03:17:01.047Z,7.83
2022-12-11T03:20:39.130Z,9.60
2022-12-11T03:24:09.095Z,8.37
2022-12-11T03:27:39.690Z,8.77
2022-12-11T03:31:10.558Z,7.80
2022-12-11T03:34:42.576Z,10.00
2022-12-11T03:38:12.538Z,9.70
2022-12-11T03:41:40.832Z,8.93
2022-12-11T03:45:09.257Z,7.93
2022-12-11T03:48:38.583Z,9.60
2022-12-11T03:52:04.553Z,8.70
2022-12-11T03:55:31.517Z,7.13
2022-12-11T03:58:55.252Z,8.30
2022-12-11T04:02:18.714Z,10.00
2022-12-11T04:05:43.779Z,8.93
2022-12-11T04:09:07.536Z,9.30
2022-12-11T04:12:32.493Z,8.20
2022-12-11T04:15:55.041Z,7.83
2022-12-11T04:19:37.244Z,9.83
2022-12-11T04:23:18.791Z,7.90
2022-12-11T04:26:42.900Z,8.20
2022-12-11T04:30:14.107Z,7.10
2022-12-11T04:33:37.529Z,6.93
2022-12-11T04:37:00.989Z,6.20
2022-12-11T04:40:25.444Z,7.77
2022-12-11T04:43:49.263Z,5.90
2022-12-11T04:47:14.090Z,7.10
2022-12-11T04:50:37.846Z,7.90
2022-12-11T04:54:01.664Z,8.60
2022-12-11T04:57:25.272Z,6.70
2022-12-11T05:00:49.386Z,6.83
2022-12-11T05:04:14.441Z,9.33
2022-12-11T05:07:38.784Z,6.63
2022-12-11T05:11:07.167Z,6.60
2022-12-11T05:14:32.020Z,6.33
2022-12-11T05:17:55.475Z,7.50
2022-12-11T05:21:20.343Z,7.40
2022-12-11T05:24:44.242Z,7.03
2022-12-11T05:28:07.697Z,7.73
2022-12-11T05:31:31.250Z,8.30
2022-12-11T05:34:55.102Z,7.23
2022-12-11T05:38:20.335Z,9.53
2022-12-11T05:41:44.214Z,5.23
2022-12-11T05:45:09.043Z,7.37
2022-12-11T05:48:32.675Z,6.23
2022-12-11T05:51:56.120Z,6.80
2022-12-11T05:55:20.898Z,5.73
2022-12-11T05:58:46.839Z,7.33
2022-12-11T06:02:10.376Z,9.23
2022-12-11T06:05:38.417Z,6.80
2022-12-11T06:09:02.634Z,6.70
2022-12-11T06:12:28.400Z,6.57
2022-12-11T06:15:53.094Z,7.20
2022-12-11T06:19:18.468Z,7.20
2022-12-11T06:22:42.371Z,7.07
2022-12-11T06:26:07.106Z,8.50
2022-12-11T06:29:32.075Z,9.63
2022-12-11T06:32:55.455Z,10.40
2022-12-11T06:36:23.175Z,10.40
2022-12-11T06:39:46.684Z,7.40
2022-12-11T06:43:10.174Z,8.17
2022-12-11T06:46:35.700Z,8.03
2022-12-11T06:50:00.093Z,8.57
2022-12-11T06:53:23.994Z,7.60
2022-12-11T06:56:47.806Z,8.50
2022-12-11T07:00:13.058Z,8.17
2022-12-11T07:03:37.955Z,7.97
2022-12-11T07:07:02.596Z,6.80
2022-12-11T07:10:28.104Z,9.90
2022-12-11T07:13:52.215Z,8.40
2022-12-11T07:17:15.838Z,11.67
2022-12-11T07:20:40.724Z,11.03
2022-12-11T07:24:05.068Z,11.90
2022-12-11T07:27:28.885Z,9.77
2022-12-11T07:30:52.765Z,9.37
2022-12-11T07:34:16.607Z,9.67
2022-12-11T07:37:42.984Z,8.80
2022-12-11T07:41:09.710Z,10.40
2022-12-11T07:44:33.502Z,10.40
2022-12-11T07:47:57.330Z,8.27
2022-12-11T07:51:26.439Z,8.77
2022-12-11T07:54:51.313Z,9.83
2022-12-11T07:58:14.863Z,10.13
2022-12-11T08:01:39.305Z,11.90
2022-12-11T08:05:03.107Z,11.93
2022-12-11T08:08:26.680Z,9.07
2022-12-11T08:11:52.906Z,10.00
2022-12-11T08:15:16.534Z,8.10
2022-12-11T08:18:40.650Z,9.70
2022-12-11T08:22:04.665Z,10.00
2022-12-11T08:25:28.536Z,10.77
2022-12-11T08:28:53.783Z,10.43
2022-12-11T08:32:18.014Z,11.83
2022-12-11T08:35:43.987Z,12.20
2022-12-11T08:39:07.578Z,9.93
2022-12-11T08:42:31.430Z,11.20
2022-12-11T08:45:56.270Z,10.17
2022-12-11T08:49:20.157Z,15.13
2022-12-11T08:52:44.310Z,12.27
2022-12-11T08:56:11.096Z,10.57
2022-12-11T08:59:34.790Z,11.27
2022-12-11T09:02:59.696Z,10.13
2022-12-11T09:06:26.903Z,10.13
2022-12-11T09:09:50.819Z,8.57
2022-12-11T09:13:14.467Z,10.70
2022-12-11T09:16:41.098Z,9.83
2022-12-11T09:20:07.308Z,10.57
2022-12-11T09:23:31.469Z,11.40
2022-12-11T09:26:55.132Z,11.27
2022-12-11T09:30:18.809Z,9.60
2022-12-11T09:33:42.817Z,10.83
2022-12-11T09:37:07.733Z,11.83
2022-12-11T09:40:35.666Z,10.57
2022-12-11T09:44:17.503Z,10.17
2022-12-11T09:47:44.793Z,13.13
2022-12-11T09:51:23.675Z,11.10
2022-12-11T09:54:53.731Z,9.10
2022-12-11T09:58:28.043Z,9.33
2022-12-11T10:02:01.761Z,10.47
2022-12-11T10:05:38.363Z,11.30
2022-12-11T10:09:18.031Z,10.90
2022-12-11T10:12:57.347Z,9.00
2022-12-11T10:16:36.594Z,11.10
2022-12-11T10:20:17.224Z,9.60
2022-12-11T10:23:49.691Z,8.47
2022-12-11T10:27:21.216Z,9.10
2022-12-11T10:30:58.639Z,11.40
2022-12-11T10:34:34.115Z,9.43
2022-12-11T10:38:10.716Z,10.00
2022-12-11T10:41:39.720Z,11.23
2022-12-11T10:45:06.725Z,9.33
2022-12-11T10:48:31.799Z,10.10
2022-12-11T10:51:57.173Z,8.20
2022-12-11T10:55:25.728Z,10.60
2022-12-11T10:58:51.731Z,9.70
2022-12-11T11:02:26.176Z,10.30
2022-12-11T11:06:05.980Z,10.83
2022-12-11T11:09:33.066Z,11.20
2022-12-11T11:13:03.358Z,13.43
2022-12-11T11:16:29.486Z,9.77
2022-12-11T11:19:53.412Z,10.23
2022-12-11T11:23:22.472Z,11.83
2022-12-11T11:27:12.191Z,13.40
2022-12-11T11:30:34.680Z,11.57
2022-12-11T11:34:03.202Z,10.53
2022-12-11T11:37:33.691Z,10.60
2022-12-11T11:41:15.224Z,10.90
2022-12-11T11:44:48.599Z,10.33
2022-12-11T11:48:37.699Z,13.70
2022-12-11T11:52:13.197Z,13.83
2022-12-11T11:55:50.240Z,11.37
2022-12-11T11:59:23.380Z,10.40
2022-12-11T12:02:49.019Z,10.53
2022-12-11T12:06:27.985Z,11.40
2022-12-11T12:10:04.474Z,11.43
2022-12-11T12:13:49.394Z,11.17
2022-12-11T12:17:31.227Z,9.77
2022-12-11T12:21:06.718Z,10.10
2022-12-11T12:24:47.819Z,10.00
2022-12-11T12:28:27.483Z,10.63
2022-12-11T12:32:09.597Z,8.73
2022-12-11T12:35:38.619Z,14.07
2022-12-11T12:39:12.129Z,9.40
2022-12-11T12:42:50.188Z,11.70
2022-12-11T12:46:26.211Z,11.87
2022-12-11T12:49:53.220Z,10.40
2022-12-11T12:53:24.692Z,10.40
2022-12-11T12:56:50.322Z,10.53
2022-12-11T13:00:15.366Z,10.90
2022-12-11T13:03:55.372Z,11.73
2022-12-11T13:07:23.284Z,10.03
2022-12-11T13:11:03.045Z,13.83
2022-12-11T13:14:32.428Z,10.20
2022-12-11T13:17:56.255Z,9.67
2022-12-11T13:21:33.158Z,11.17
2022-12-11T13:25:02.515Z,11.10
2022-12-11T13:28:35.272Z,11.97
2022-12-11T13:32:01.373Z,11.20
2022-12-11T13:35:25.383Z,12.47
2022-12-11T13:38:54.789Z,15.63
2022-12-11T13:42:28.902Z,12.87
2022-12-11T13:45:58.307Z,10.57
2022-12-11T13:49:27.492Z,9.83
2022-12-11T13:52:55.838Z,10.97
2022-12-11T13:56:22.494Z,14.57
2022-12-11T13:59:53.136Z,16.40
2022-12-11T14:03:20.015Z,14.23
2022-12-11T14:06:44.417Z,11.43
2022-12-11T14:10:16.103Z,12.17
2022-12-11T14:13:42.394Z,12.90
2022-12-11T14:17:06.207Z,12.30
2022-12-11T14:20:33.781Z,11.93
2022-12-11T14:24:00.864Z,14.63
2022-12-11T14:27:26.505Z,14.23
2022-12-11T14:30:53.369Z,13.80
2022-12-11T14:34:24.113Z,13.80
2022-12-11T14:37:49.314Z,15.93
2022-12-11T14:41:28.314Z,16.53
2022-12-11T14:44:59.015Z,13.27
2022-12-11T14:48:29.234Z,14.77
2022-12-11T14:51:56.164Z,15.80
2022-12-11T14:55:27.823Z,15.87
2022-12-11T14:58:57.866Z,14.50
2022-12-11T15:02:30.113Z,13.80
2022-12-11T15:05:56.830Z,15.63
2022-12-11T15:09:25.901Z,16.80
2022-12-11T15:12:50.969Z,15.27
2022-12-11T15:16:16.333Z,17.07
2022-12-11T15:19:41.001Z,15.50
2022-12-11T15:23:05.025Z,16.10
2022-12-11T15:26:37.110Z,16.37
2022-12-11T15:30:02.183Z,14.27
2022-12-11T15:33:31.079Z,11.20
2022-12-11T15:36:57.827Z,13.63
2022-12-11T15:40:21.978Z,13.40
2022-12-11T15:43:46.646Z,14.87
2022-12-11T15:47:16.374Z,12.87
2022-12-11T15:50:41.412Z,13.40
2022-12-11T15:54:05.437Z,15.20
2022-12-11T15:57:29.533Z,14.30
2022-12-11T16:00:53.911Z,16.40
2022-12-11T16:04:18.889Z,13.90
2022-12-11T16:07:43.331Z,17.20
2022-12-11T16:11:07.270Z,19.00
2022-12-11T16:14:31.199Z,15.93
2022-12-11T16:18:03.117Z,18.00
2022-12-11T16:21:28.090Z,19.90
2022-12-11T16:24:55.514Z,18.47
2022-12-11T16:28:21.838Z,16.60
2022-12-11T16:31:46.233Z,15.93
2022-12-11T16:35:11.074Z,17.97
2022-12-11T16:38:36.126Z,16.80
2022-12-11T16:42:00.151Z,17.40
2022-12-11T16:45:27.328Z,17.00
2022-12-11T16:48:51.220Z,17.27
2022-12-11T16:52:20.458Z,18.10
2022-12-11T16:55:46.961Z,15.60
2022-12-11T16:59:10.943Z,16.77
2022-12-11T17:02:34.673Z,18.07
2022-12-11T17:05:59.131Z,16.63
2022-12-11T17:09:22.739Z,17.37
2022-12-11T17:12:47.629Z,15.67
2022-12-11T17:16:15.041Z,15.50
2022-12-11T17:19:39.012Z,14.27
2022-12-11T17:23:02.970Z,17.27
2022-12-11T17:26:28.520Z,16.37
2022-12-11T17:29:53.512Z,14.77
2022-12-11T17:33:17.649Z,14.90
2022-12-11T17:36:41.588Z,15.70
2022-12-11T17:40:06.186Z,19.43
2022-12-11T17:43:29.801Z,18.23
2022-12-11T17:46:54.783Z,16.70
2022-12-11T17:50:19.436Z,15.50
2022-12-11T17:53:43.080Z,14.77
2022-12-11T17:57:07.505Z,17.90
2022-12-11T18:00:33.457Z,19.90
2022-12-11T18:04:01.507Z,16.10
2022-12-11T18:07:25.681Z,16.50
2022-12-11T18:10:49.561Z,16.87
2022-12-11T18:14:17.175Z,18.57
2022-12-11T18:17:41.223Z,17.37
2022-12-11T18:21:07.318Z,18.43
2022-12-11T18:24:32.629Z,17.07
2022-12-11T18:27:57.539Z,19.10
2022-12-11T18:31:23.604Z,19.47
2022-12-11T18:34:47.141Z,19.67
2022-12-11T18:38:12.684Z,14.70
2022-12-11T18:41:36.879Z,18.60
2022-12-11T18:45:00.742Z,16.87
2022-12-11T18:48:24.758Z,17.63
2022-12-11T18:51:48.406Z,18.47
2022-12-11T18:55:13.622Z,17.03
2022-12-11T18:58:38.073Z,15.60
2022-12-11T19:02:01.713Z,17.03
2022-12-11T19:05:25.292Z,18.17
2022-12-11T19:08:49.415Z,18.50
2022-12-11T19:12:14.360Z,15.60
2022-12-11T19:15:41.322Z,18.07
2022-12-11T19:19:09.918Z,15.87
2022-12-11T19:22:33.434Z,19.60
2022-12-11T19:25:57.043Z,17.90
2022-12-11T19:29:25.217Z,18.70
2022-12-11T19:32:48.743Z,16.90
2022-12-11T19:36:15.549Z,17.17
2022-12-11T19:39:40.982Z,17.27
2022-12-11T19:43:04.570Z,15.93
2022-12-11T19:46:30.671Z,17.37
2022-12-11T19:49:54.504Z,18.10
2022-12-11T19:53:18.231Z,16.00
2022-12-11T19:56:42.038Z,15.87
2022-12-11T20:00:08.222Z,17.90
2022-12-11T20:03:37.530Z,12.67
2022-12-11T20:07:01.314Z,16.97
2022-12-11T20:10:24.756Z,17.83
2022-12-11T20:13:48.873Z,17.30
2022-12-11T20:17:14.522Z,15.97
2022-12-11T20:20:39.993Z,17.57
2022-12-11T20:24:03.637Z,16.07
2022-12-11T20:27:28.530Z,16.20
2022-12-11T20:30:52.124Z,18.20
2022-12-11T20:34:15.633Z,18.10
2022-12-11T20:37:40.677Z,17.93
2022-12-11T20:41:05.111Z,14.30
2022-12-11T20:44:29.822Z,18.73
2022-12-11T20:47:53.884Z,16.73
2022-12-11T20:51:25.806Z,19.00
2022-12-11T20:54:51.210Z,17.20
2022-12-11T20:58:15.287Z,16.57
2022-12-11T21:01:39.190Z,16.40
2022-12-11T21:05:03.219Z,18.50
2022-12-11T21:08:27.139Z,16.10
2022-12-11T21:11:52.832Z,15.47
2022-12-11T21:15:17.587Z,16.60
2022-12-11T21:18:44.264Z,18.43
2022-12-11T21:22:08.214Z,17.90
2022-12-11T21:25:31.750Z,15.63
2022-12-11T21:28:56.854Z,17.27
2022-12-11T21:32:21.398Z,14.27
2022-12-11T21:35:45.346Z,14.53
2022-12-11T21:39:09.837Z,14.97
2022-12-11T21:42:33.791Z,12.90
2022-12-11T21:46:01.468Z,16.57
2022-12-11T21:49:26.104Z,17.30
2022-12-11T21:52:49.627Z,16.47
2022-12-11T21:56:17.886Z,15.30
2022-12-11T21:59:42.037Z,15.43
2022-12-11T22:03:07.435Z,17.33
2022-12-11T22:06:31.573Z,16.20
2022-12-11T22:09:55.548Z,15.23
2022-12-11T22:13:19.580Z,14.37
2022-12-11T22:16:43.690Z,17.97
2022-12-11T22:20:10.603Z,18.07
2022-12-11T22:23:35.001Z,19.40
2022-12-11T22:26:59.161Z,18.40
2022-12-11T22:30:23.244Z,19.67
2022-12-11T22:33:47.310Z,18.90
2022-12-11T22:37:12.191Z,22.20
2022-12-11T22:40:39.651Z,20.50
2022-12-11T22:44:03.885Z,17.47
2022-12-11T22:47:27.710Z,18.67
2022-12-11T22:50:51.741Z,18.33
2022-12-11T22:54:16.849Z,18.20
2022-12-11T22:57:40.959Z,12.97
2022-12-11T23:01:11.044Z,18.03
2022-12-11T23:04:34.952Z,14.07
2022-12-11T23:07:58.993Z,14.17
2022-12-11T23:11:27.381Z,12.70
2022-12-11T23:14:51.502Z,14.20
2022-12-11T23:18:15.488Z,16.10
2022-12-11T23:21:40.164Z,16.90
2022-12-11T23:25:04.257Z,15.13
2022-12-11T23:28:29.149Z,15.10
2022-12-11T23:31:52.784Z,16.33
2022-12-11T23:35:16.458Z,15.33
2022-12-11T23:38:40.633Z,14.03
2022-12-11T23:42:04.598Z,13.10
2022-12-11T23:45:29.474Z,11.27
2022-12-11T23:48:55.211Z,13.47
2022-12-11T23:52:19.017Z,17.93
2022-12-11T23:55:45.185Z,14.90
2022-12-11T23:59:08.781Z,14.10
